Time;durP1;ratioP1;P1;durP2;ratioP2;P2;SDS_P1;SDS_P2;PMS_P1;PMS_P2;Temp;Humidity;BMP_temperature;BMP_pressure;BME280_temperature;BME280_humidity;BME280_pressure;Samples;Min_cycle;Max_cycle;Signal;HPM_P1;HPM_P2
2022/01/10 00:01:00;;;;;;;5.82;4.15;;;;;;;1.47;84.61;95549.28;5027103;28;20057;-73
2022/01/10 00:03:26;;;;;;;7.40;4.35;;;;;;;1.43;85.09;95549.03;5026941;28;20052;-74
2022/01/10 00:05:53;;;;;;;6.95;4.57;;;;;;;1.42;85.39;95549.31;5027446;28;20493;-74
2022/01/10 00:08:19;;;;;;;7.03;4.10;;;;;;;1.44;85.26;95547.94;5026968;28;20053;-74
2022/01/10 00:10:46;;;;;;;7.35;4.18;;;;;;;1.44;85.39;95547.94;5029762;28;20056;-74
2022/01/10 00:13:13;;;;;;;7.15;3.97;;;;;;;1.45;85.52;95538.81;5027017;28;20061;-74
2022/01/10 00:15:40;;;;;;;9.27;4.30;;;;;;;1.50;85.46;95546.03;5027445;28;20076;-73
2022/01/10 00:18:08;;;;;;;7.72;4.32;;;;;;;1.52;85.26;95546.56;5029610;28;20057;-74
2022/01/10 00:20:35;;;;;;;7.00;4.32;;;;;;;1.54;85.19;95544.38;5046981;28;20491;-74
2022/01/10 00:23:01;;;;;;;7.32;4.32;;;;;;;1.59;85.24;95544.34;5047335;28;20080;-74
2022/01/10 00:25:28;;;;;;;7.63;4.53;;;;;;;1.62;84.66;95543.78;5047068;28;20068;-74
2022/01/10 00:27:56;;;;;;;7.85;4.35;;;;;;;1.61;84.45;95544.84;5047208;28;20684;-74
2022/01/10 00:30:24;;;;;;;5.70;4.15;;;;;;;1.58;84.55;95545.44;5046497;28;20395;-74
2022/01/10 00:32:51;;;;;;;6.65;4.20;;;;;;;1.56;84.77;95547.56;5047062;28;20061;-74
2022/01/10 00:35:19;;;;;;;8.20;3.83;;;;;;;1.55;84.75;95551.34;5046562;28;20049;-74
2022/01/10 00:37:46;;;;;;;9.30;4.80;;;;;;;1.52;84.89;95546.56;5046842;28;20053;-74
2022/01/10 00:40:15;;;;;;;9.00;4.30;;;;;;;1.48;84.89;95554.34;5043785;28;20049;-73
2022/01/10 00:42:43;;;;;;;6.55;4.35;;;;;;;1.43;85.08;95546.34;5030761;28;20049;-75
2022/01/10 00:45:17;;;;;;;8.07;4.30;;;;;;;1.38;85.39;95545.59;5030512;28;20053;-73
2022/01/10 00:47:46;;;;;;;10.15;4.85;;;;;;;1.35;85.53;95551.50;5030882;28;20076;-75
2022/01/10 00:50:13;;;;;;;6.95;4.30;;;;;;;1.30;85.60;95555.00;5030111;28;20186;-76
2022/01/10 00:52:41;;;;;;;7.43;4.70;;;;;;;1.30;85.87;95553.16;5030754;28;20052;-75
2022/01/10 00:55:09;;;;;;;6.45;4.07;;;;;;;1.36;85.77;95563.81;5030250;28;20076;-74
2022/01/10 00:57:35;;;;;;;7.13;4.43;;;;;;;1.40;85.79;95567.56;5030658;28;20074;-74
2022/01/10 01:00:02;;;;;;;7.20;4.30;;;;;;;1.47;85.59;95570.75;5029989;28;20495;-73
2022/01/10 01:02:32;;;;;;;8.25;4.63;;;;;;;1.51;85.71;95577.13;5030658;28;20064;-74
2022/01/10 01:05:00;;;;;;;6.45;3.88;;;;;;;1.59;85.34;95573.06;5030545;28;20172;-74
2022/01/10 01:07:26;;;;;;;10.52;5.15;;;;;;;1.58;84.90;95574.94;5029966;28;20646;-74
2022/01/10 01:10:06;;;;;;;8.57;4.50;;;;;;;1.60;84.78;95586.19;5031241;28;20060;-74
2022/01/10 01:12:42;;;;;;;9.25;5.07;;;;;;;1.61;84.89;95592.34;5030315;28;20045;-73
2022/01/10 01:15:20;;;;;;;10.00;4.60;;;;;;;1.67;84.70;95593.91;5029891;28;20386;-76
2022/01/10 01:17:58;;;;;;;9.20;4.45;;;;;;;1.71;84.86;95594.97;5030553;28;20049;-74
2022/01/10 01:20:31;;;;;;;8.13;4.53;;;;;;;1.74;84.15;95603.28;5029563;28;20053;-74
2022/01/10 01:25:42;;;;;;;8.90;5.07;;;;;;;1.84;84.13;95613.13;5030121;28;20056;-73
2022/01/10 01:28:09;;;;;;;10.63;5.05;;;;;;;1.87;83.95;95617.13;5029963;28;20123;-74
2022/01/10 01:30:35;;;;;;;7.22;4.72;;;;;;;1.87;83.88;95617.13;5029950;28;20053;-74
2022/01/10 01:33:02;;;;;;;11.15;5.25;;;;;;;1.91;83.71;95626.22;5029364;28;20061;-73
2022/01/10 01:35:28;;;;;;;8.77;4.78;;;;;;;1.92;83.27;95625.13;5030123;28;20154;-74
2022/01/10 01:37:56;;;;;;;8.23;4.90;;;;;;;1.92;83.05;95625.13;5029944;28;20065;-74
2022/01/10 01:40:26;;;;;;;9.85;5.50;;;;;;;1.92;83.06;95625.13;5031897;28;20575;-74
2022/01/10 01:42:54;;;;;;;10.60;5.28;;;;;;;1.93;82.98;95634.78;5029779;28;20049;-73
2022/01/10 01:45:36;;;;;;;10.00;5.70;;;;;;;1.94;82.86;95633.72;5029382;28;20052;-74
2022/01/10 01:48:03;;;;;;;7.90;5.00;;;;;;;1.94;82.94;95633.72;5029313;28;20056;-73
2022/01/10 01:50:30;;;;;;;10.48;5.35;;;;;;;1.92;82.97;95646.63;5029591;28;20050;-74
2022/01/10 01:52:56;;;;;;;10.32;5.72;;;;;;;1.92;83.24;95641.25;5028759;28;20079;-73
2022/01/10 01:55:23;;;;;;;11.27;5.93;;;;;;;1.97;83.12;95639.31;5029275;28;20460;-74
2022/01/10 01:57:50;;;;;;;9.52;5.13;;;;;;;1.97;83.25;95641.22;5029736;28;20064;-74
2022/01/10 02:00:22;;;;;;;8.93;5.40;;;;;;;1.94;82.96;95650.66;5029191;28;20057;-74
2022/01/10 02:02:49;;;;;;;9.73;6.00;;;;;;;1.92;82.89;95649.31;5029450;28;20053;-74
2022/01/10 02:05:15;;;;;;;11.13;5.40;;;;;;;1.86;82.83;95661.16;5029281;28;20053;-73
2022/01/10 02:07:42;;;;;;;9.15;4.95;;;;;;;1.85;83.13;95664.94;5029742;28;20052;-74
2022/01/10 02:10:09;;;;;;;9.43;5.22;;;;;;;1.81;83.09;95664.69;5031406;28;20778;-74
2022/01/10 02:12:36;;;;;;;10.50;5.07;;;;;;;1.76;83.46;95670.09;5029075;28;20056;-73
2022/01/10 02:15:03;;;;;;;11.85;5.70;;;;;;;1.69;83.71;95670.41;5028983;28;20057;-74
2022/01/10 02:17:36;;;;;;;8.23;5.63;;;;;;;1.67;83.80;95671.75;5028981;28;20049;-74
2022/01/10 02:20:06;;;;;;;10.25;5.32;;;;;;;1.67;83.98;95683.31;5028752;28;20051;-74
2022/01/10 02:22:32;;;;;;;9.27;5.75;;;;;;;1.66;84.13;95681.69;5029153;28;20061;-74
2022/01/10 02:24:59;;;;;;;9.55;5.55;;;;;;;1.67;84.31;95690.53;5029053;28;20046;-73
2022/01/10 02:27:26;;;;;;;11.70;5.93;;;;;;;1.67;84.18;95688.69;5028179;28;20049;-74
2022/01/10 02:29:53;;;;;;;9.95;5.50;;;;;;;1.70;84.02;95688.09;5028772;28;20060;-74
2022/01/10 02:32:21;;;;;;;13.52;6.20;;;;;;;1.74;84.13;95688.38;5028269;28;20144;-74
2022/01/10 02:34:47;;;;;;;8.80;5.18;;;;;;;1.75;84.05;95695.34;5028585;28;20128;-74
2022/01/10 02:40:14;;;;;;;11.73;5.75;;;;;;;1.79;84.42;95702.56;5066960;27;20397;-74
2022/01/10 02:42:40;;;;;;;10.25;6.38;;;;;;;1.78;84.07;95700.97;5065335;28;20049;-74
2022/01/10 02:45:07;;;;;;;10.90;7.00;;;;;;;1.81;83.82;95713.81;5064601;28;20071;-74
2022/01/10 02:47:34;;;;;;;13.13;6.78;;;;;;;1.81;83.76;95711.13;5065073;28;20053;-74
2022/01/10 02:50:00;;;;;;;10.20;6.32;;;;;;;1.83;83.92;95714.34;5064422;28;20049;-75
2022/01/10 02:52:27;;;;;;;12.00;7.28;;;;;;;1.87;84.27;95714.56;5061551;28;20515;-74
2022/01/10 02:54:55;;;;;;;14.98;6.85;;;;;;;1.90;83.98;95718.59;5036825;28;20053;-74
2022/01/10 02:57:24;;;;;;;13.38;7.38;;;;;;;1.93;83.87;95724.22;5044448;28;20059;-74
2022/01/10 02:59:50;;;;;;;12.35;7.25;;;;;;;1.96;83.99;95722.84;5044752;28;20047;-74
2022/01/10 03:02:19;;;;;;;11.35;6.78;;;;;;;1.98;83.94;95726.84;5044295;28;20397;-74
2022/01/10 03:04:46;;;;;;;11.88;6.53;;;;;;;2.02;83.68;95727.91;5044903;28;20072;-74
2022/01/10 03:07:15;;;;;;;13.35;7.30;;;;;;;2.06;83.40;95733.53;5044519;28;20529;-74
2022/01/10 03:09:42;;;;;;;12.38;6.68;;;;;;;2.04;83.48;95735.69;5044668;28;20059;-76
2022/01/10 03:12:09;;;;;;;11.88;6.88;;;;;;;2.02;83.37;95729.78;5043900;28;20045;-74
2022/01/10 03:14:37;;;;;;;12.50;7.20;;;;;;;1.99;83.39;95727.69;5044595;28;20045;-75
2022/01/10 03:17:04;;;;;;;12.18;6.93;;;;;;;1.98;83.60;95736.78;5044538;28;20053;-74
2022/01/10 03:19:32;;;;;;;12.82;7.18;;;;;;;1.97;83.55;95737.88;5044412;28;20056;-77
2022/01/10 03:21:58;;;;;;;13.00;7.63;;;;;;;1.97;83.80;95743.25;5044759;28;20049;-74
2022/01/10 03:24:24;;;;;;;16.98;7.80;;;;;;;1.96;83.73;95755.06;5044066;28;20060;-74
2022/01/10 03:26:51;;;;;;;13.75;8.32;;;;;;;1.96;83.91;95755.06;5044691;28;20052;-75
2022/01/10 03:29:18;;;;;;;15.23;8.23;;;;;;;1.99;84.13;95759.91;5043863;28;20053;-74
2022/01/10 03:31:47;;;;;;;13.20;8.27;;;;;;;2.04;83.89;95762.56;5044196;28;20538;-74
2022/01/10 03:34:13;;;;;;;13.98;8.00;;;;;;;2.11;83.68;95768.41;5043954;28;20049;-75
2022/01/10 03:36:40;;;;;;;11.70;7.35;;;;;;;2.10;83.20;95761.44;5044392;28;20056;-75
2022/01/10 03:39:07;;;;;;;12.23;7.38;;;;;;;2.04;82.92;95759.88;5038751;28;20045;-74
2022/01/10 03:41:33;;;;;;;10.80;6.68;;;;;;;2.01;83.11;95763.09;5043977;28;20061;-75
2022/01/10 03:44:00;;;;;;;13.85;7.78;;;;;;;2.00;83.19;95772.25;5043505;28;20064;-75
2022/01/10 03:46:27;;;;;;;15.55;7.25;;;;;;;2.00;83.16;95772.25;5038934;28;20045;-75
2022/01/10 03:48:55;;;;;;;15.00;8.38;;;;;;;1.98;83.15;95780.56;5044218;28;20124;-74
2022/01/10 03:51:22;;;;;;;14.05;8.60;;;;;;;2.05;83.39;95774.91;5030870;28;20515;-74
2022/01/10 03:53:48;;;;;;;12.27;7.72;;;;;;;2.08;82.66;95779.69;5030656;28;20533;-74
2022/01/10 03:56:15;;;;;;;14.18;8.02;;;;;;;2.10;82.22;95782.94;5030101;28;20049;-75
2022/01/10 03:58:41;;;;;;;13.85;8.48;;;;;;;2.12;82.44;95775.38;5030579;28;20076;-74
2022/01/10 04:01:09;;;;;;;14.55;8.18;;;;;;;2.12;82.32;95775.38;5030089;28;20053;-74
2022/01/10 04:03:36;;;;;;;12.38;7.35;;;;;;;2.12;82.31;95785.31;5030628;28;20056;-75
2022/01/10 04:06:04;;;;;;;11.98;7.60;;;;;;;2.03;82.47;95785.91;5030156;28;20183;-74
2022/01/10 04:08:32;;;;;;;13.27;7.07;;;;;;;2.01;82.53;95790.75;5030291;28;20583;-74
2022/01/10 04:10:59;;;;;;;16.10;8.90;;;;;;;1.99;82.52;95789.44;5030292;28;20293;-74
2022/01/10 04:13:26;;;;;;;14.23;8.57;;;;;;;1.96;82.41;95788.09;5029785;28;20435;-75
2022/01/10 04:15:53;;;;;;;13.15;8.13;;;;;;;1.97;82.48;95794.25;5029864;28;20126;-74
2022/01/10 04:18:20;;;;;;;12.57;8.20;;;;;;;1.96;82.71;95804.19;5029651;28;20049;-74
2022/01/10 04:20:47;;;;;;;14.52;8.73;;;;;;;1.99;82.60;95809.03;5030110;28;20049;-75
2022/01/10 04:23:17;;;;;;;13.38;8.35;;;;;;;1.99;82.51;95808.22;5029762;28;20052;-78
2022/01/10 04:25:44;;;;;;;14.88;8.50;;;;;;;1.98;82.53;95801.22;5029957;28;20042;-74
2022/01/10 04:28:11;;;;;;;15.18;7.80;;;;;;;1.89;82.79;95808.28;5029437;28;20060;-74
2022/01/10 04:30:37;;;;;;;13.45;9.05;;;;;;;1.85;83.04;95812.59;5029752;28;20053;-74
2022/01/10 04:33:04;;;;;;;14.98;8.52;;;;;;;1.79;83.26;95809.94;5029627;28;20050;-74
2022/01/10 04:35:32;;;;;;;13.55;7.88;;;;;;;1.77;83.55;95817.44;5029611;28;20049;-75
2022/01/10 04:37:59;;;;;;;16.23;8.82;;;;;;;1.73;83.53;95808.34;5029754;28;20606;-75
2022/01/10 04:40:27;;;;;;;15.52;8.63;;;;;;;1.71;83.72;95823.09;5029347;28;20083;-75
2022/01/10 04:42:54;;;;;;;13.75;8.05;;;;;;;1.67;83.98;95822.03;5029606;28;20527;-74
2022/01/10 04:45:21;;;;;;;14.50;8.70;;;;;;;1.61;84.06;95821.25;5024707;28;20046;-75
2022/01/10 04:47:48;;;;;;;16.80;9.30;;;;;;;1.62;84.47;95825.56;5029412;28;20050;-74
2022/01/10 04:53:00;;;;;;;14.93;8.85;;;;;;;1.68;84.07;95834.41;5020001;28;20166;-75
2022/01/10 04:55:29;;;;;;;14.25;8.95;;;;;;;1.66;84.25;95834.66;5013385;28;20045;-74
2022/01/10 04:57:55;;;;;;;14.80;9.32;;;;;;;1.63;84.23;95837.91;5029659;28;20061;-74
2022/01/10 05:00:22;;;;;;;16.35;10.00;;;;;;;1.56;84.21;95848.91;5028586;28;20496;-74
2022/01/10 05:02:50;;;;;;;15.63;9.40;;;;;;;1.51;84.50;95853.50;5028502;28;20050;-74
2022/01/10 05:05:17;;;;;;;13.88;9.57;;;;;;;1.45;85.00;95858.06;5028774;28;20080;-74
2022/01/10 05:07:44;;;;;;;15.77;9.93;;;;;;;1.42;85.14;95857.81;5029410;28;20488;-74
2022/01/10 05:10:11;;;;;;;15.40;9.88;;;;;;;1.39;85.57;95874.47;5028654;28;20053;-74
2022/01/10 05:12:39;;;;;;;18.85;10.18;;;;;;;1.39;85.66;95874.47;5029239;28;20048;-75
2022/01/10 05:15:06;;;;;;;18.23;10.65;;;;;;;1.42;85.34;95885.47;5027656;28;20397;-74
2022/01/10 05:17:33;;;;;;;18.92;10.90;;;;;;;1.49;85.71;95893.22;5021662;28;20049;-74
2022/01/10 05:19:59;;;;;;;21.08;12.13;;;;;;;1.54;86.02;95899.38;5028873;28;20056;-74
2022/01/10 05:22:26;;;;;;;17.60;11.25;;;;;;;1.61;86.08;95899.09;5028702;28;20397;-74
2022/01/10 05:24:52;;;;;;;18.08;10.68;;;;;;;1.68;85.11;95898.81;5029083;28;20102;-74
2022/01/10 05:27:19;;;;;;;20.27;11.23;;;;;;;1.69;84.79;95895.84;5028242;28;20778;-74
2022/01/10 05:29:47;;;;;;;20.83;12.95;;;;;;;1.69;84.74;95901.22;5028790;28;20041;-75
2022/01/10 05:32:13;;;;;;;16.60;10.50;;;;;;;1.68;84.74;95909.56;5028276;28;20045;-74
2022/01/10 05:34:40;;;;;;;19.38;9.98;;;;;;;1.70;84.89;95907.41;5028765;28;20053;-75
2022/01/10 05:37:06;;;;;;;16.70;10.57;;;;;;;1.71;85.04;95920.53;5028247;28;20064;-75
2022/01/10 05:39:33;;;;;;;16.25;10.55;;;;;;;1.72;85.00;95908.75;5028440;28;20045;-74
2022/01/10 05:41:59;;;;;;;18.45;12.05;;;;;;;1.72;85.04;95914.13;5028674;28;20064;-74
2022/01/10 05:44:27;;;;;;;18.45;10.82;;;;;;;1.76;84.72;95911.66;5028122;28;20061;-74
2022/01/10 05:46:54;;;;;;;17.23;10.38;;;;;;;1.75;84.65;95932.34;5028135;28;20191;-75
2022/01/10 05:49:26;;;;;;;17.90;10.65;;;;;;;1.71;84.48;95936.66;5027712;28;20060;-74
2022/01/10 05:51:53;;;;;;;15.43;10.27;;;;;;;1.76;84.88;95939.31;5028335;28;20541;-75
2022/01/10 05:54:19;;;;;;;18.02;11.38;;;;;;;1.79;85.00;95949.53;5028147;28;20049;-74
2022/01/10 05:56:46;;;;;;;19.90;10.63;;;;;;;1.82;84.96;95943.59;5028557;28;20045;-75
2022/01/10 05:59:12;;;;;;;19.33;11.10;;;;;;;1.83;84.65;95945.22;5027721;28;20050;-74
2022/01/10 06:01:39;;;;;;;19.58;11.60;;;;;;;1.82;84.57;95953.53;5028380;28;20049;-75
2022/01/10 06:04:06;;;;;;;18.35;10.55;;;;;;;1.88;84.62;95954.31;5027958;28;20053;-74
2022/01/10 06:06:33;;;;;;;16.00;10.82;;;;;;;1.90;84.49;95960.25;5028331;28;20049;-75
2022/01/10 06:08:59;;;;;;;16.38;10.57;;;;;;;1.96;84.69;95964.53;5028530;28;20048;-75
2022/01/10 06:11:26;;;;;;;16.67;10.93;;;;;;;1.96;84.40;95964.53;5027475;28;20056;-74
2022/01/10 06:13:52;;;;;;;16.08;10.18;;;;;;;2.02;84.07;95968.78;5020693;28;20041;-74
2022/01/10 06:16:19;;;;;;;21.02;11.30;;;;;;;1.97;83.87;95966.91;5017825;28;20049;-76
2022/01/10 06:18:45;;;;;;;15.77;10.23;;;;;;;1.90;84.10;95969.09;5028086;28;20420;-75
2022/01/10 06:21:13;;;;;;;17.75;10.40;;;;;;;1.82;84.22;95964.28;5027529;28;20072;-73
2022/01/10 06:23:40;;;;;;;16.98;10.05;;;;;;;1.69;84.47;95971.00;5028109;28;20057;-69
2022/01/10 06:26:06;;;;;;;16.85;10.25;;;;;;;1.63;85.37;95972.09;5026996;28;20049;-69
2022/01/10 06:28:33;;;;;;;17.13;10.48;;;;;;;1.62;85.37;95978.56;5028080;28;20045;-70
2022/01/10 06:30:59;;;;;;;17.83;10.30;;;;;;;1.63;85.81;95977.47;5027835;28;20049;-69
2022/01/10 06:33:26;;;;;;;18.80;11.73;;;;;;;1.63;85.78;95985.53;5027521;28;20053;-69
2022/01/10 06:35:52;;;;;;;17.88;10.60;;;;;;;1.65;85.69;95994.09;5027937;28;20060;-70
2022/01/10 06:38:20;;;;;;;20.40;10.98;;;;;;;1.67;85.55;95996.50;5027377;28;20062;-69
2022/01/10 06:40:47;;;;;;;19.30;11.30;;;;;;;1.66;85.39;96006.44;5027701;28;20045;-69
2022/01/10 06:43:13;;;;;;;20.80;12.10;;;;;;;1.68;85.58;96022.28;5027550;28;20049;-69
2022/01/10 06:45:40;;;;;;;22.58;12.38;;;;;;;1.72;85.81;96024.16;5027238;28;20053;-69
2022/01/10 06:48:06;;;;;;;22.52;12.60;;;;;;;1.77;86.08;96023.34;5027257;28;20080;-69
2022/01/10 06:50:33;;;;;;;23.88;12.93;;;;;;;1.85;86.00;96032.75;5027483;28;20045;-69
2022/01/10 06:53:00;;;;;;;23.75;13.32;;;;;;;1.91;85.88;96031.66;5027690;28;20056;-69
2022/01/10 06:55:28;;;;;;;23.63;12.95;;;;;;;1.94;85.63;96036.50;5027394;28;20056;-69
2022/01/10 06:57:55;;;;;;;21.10;11.75;;;;;;;1.97;85.56;96049.38;5028021;28;20057;-69
2022/01/10 07:00:21;;;;;;;23.17;13.05;;;;;;;1.99;84.89;96044.53;5026736;28;20060;-69
2022/01/10 07:02:48;;;;;;;21.58;12.80;;;;;;;1.95;84.69;96059.59;5027743;28;20420;-69
2022/01/10 07:05:14;;;;;;;20.95;12.07;;;;;;;1.96;84.80;96066.56;5027335;28;20076;-69
2022/01/10 07:07:41;;;;;;;21.92;12.52;;;;;;;1.97;84.74;96065.47;5027981;28;20049;-69
2022/01/10 07:10:08;;;;;;;21.52;12.60;;;;;;;1.98;84.87;96075.13;5027023;28;20050;-69
2022/01/10 07:12:36;;;;;;;22.33;12.55;;;;;;;1.99;85.14;96074.09;5027718;28;20045;-69
2022/01/10 07:15:03;;;;;;;22.77;12.18;;;;;;;2.06;85.13;96077.28;5026649;28;20041;-69
2022/01/10 07:17:30;;;;;;;22.63;12.52;;;;;;;2.04;84.71;96084.81;5020033;28;20424;-69
2022/01/10 07:19:57;;;;;;;21.17;11.90;;;;;;;2.10;84.52;96089.13;5027352;28;20080;-69
2022/01/10 07:22:23;;;;;;;21.90;11.70;;;;;;;2.08;84.14;96086.69;5026968;28;20045;-69
2022/01/10 07:24:50;;;;;;;22.20;12.80;;;;;;;2.09;84.13;96095.56;5028018;28;20045;-69
2022/01/10 07:27:16;;;;;;;24.95;12.23;;;;;;;2.12;84.50;96091.53;5030975;28;20587;-69
2022/01/10 07:29:45;;;;;;;21.77;12.45;;;;;;;2.09;84.49;96098.25;5031328;28;20602;-69
2022/01/10 07:32:11;;;;;;;23.50;12.60;;;;;;;2.05;84.62;96094.50;5031027;28;20050;-70
2022/01/10 07:34:38;;;;;;;21.90;11.75;;;;;;;2.14;84.57;96106.31;5030842;28;20515;-69
2022/01/10 07:37:05;;;;;;;22.48;12.32;;;;;;;2.18;84.91;96101.19;5030918;28;20091;-70
2022/01/10 07:39:31;;;;;;;23.42;12.45;;;;;;;2.19;84.61;96114.31;5030677;28;20049;-70
2022/01/10 07:41:58;;;;;;;26.30;12.23;;;;;;;2.19;84.78;96121.59;5030891;28;20057;-70
2022/01/10 07:44:24;;;;;;;22.95;12.05;;;;;;;2.19;84.37;96126.97;5030105;28;20057;-69
2022/01/10 07:46:52;;;;;;;22.83;11.55;;;;;;;2.20;84.52;96125.91;5030150;28;20049;-69
2022/01/10 07:49:18;;;;;;;25.65;12.10;;;;;;;2.21;84.75;96131.00;5030578;28;20052;-69
2022/01/10 07:51:45;;;;;;;23.50;12.70;;;;;;;2.25;84.74;96132.09;5030686;28;20049;-69
2022/01/10 07:54:11;;;;;;;24.75;12.32;;;;;;;2.28;84.71;96141.47;5030371;28;20503;-70
2022/01/10 07:56:38;;;;;;;24.33;13.15;;;;;;;2.30;84.74;96148.19;5030689;28;20053;-69
2022/01/10 07:59:04;;;;;;;25.27;13.05;;;;;;;2.28;84.56;96161.06;5030727;28;20464;-70
2022/01/10 08:01:31;;;;;;;24.90;12.88;;;;;;;2.35;84.74;96158.13;5030362;28;20053;-69
2022/01/10 08:03:58;;;;;;;25.60;12.20;;;;;;;2.35;84.22;96161.63;5030803;28;20061;-69
2022/01/10 08:06:25;;;;;;;23.80;12.43;;;;;;;2.29;84.17;96162.69;5030201;28;20074;-69
2022/01/10 08:08:52;;;;;;;24.35;11.98;;;;;;;2.30;83.87;96166.19;5030832;28;20045;-70
2022/01/10 08:11:18;;;;;;;23.30;13.00;;;;;;;2.31;83.98;96175.88;5030205;28;20605;-69
2022/01/10 08:13:45;;;;;;;22.08;12.52;;;;;;;2.33;83.79;96179.09;5030784;28;20049;-69
2022/01/10 08:16:11;;;;;;;27.30;12.27;;;;;;;2.32;84.16;96175.59;5029602;28;20046;-69
2022/01/10 08:18:38;;;;;;;24.85;12.60;;;;;;;2.28;83.84;96184.47;5030333;28;20060;-71
2022/01/10 08:21:06;;;;;;;25.98;12.25;;;;;;;2.26;84.12;96179.34;5029456;28;20053;-70
2022/01/10 08:23:33;;;;;;;26.38;12.90;;;;;;;2.26;84.06;96194.69;5029909;28;20045;-71
2022/01/10 08:26:00;;;;;;;25.13;13.27;;;;;;;2.27;84.12;96197.09;5030215;28;20099;-71
2022/01/10 08:28:26;;;;;;;22.20;12.20;;;;;;;2.30;84.06;96199.25;5029572;28;20053;-71
2022/01/10 08:30:53;;;;;;;24.85;12.27;;;;;;;2.34;84.01;96205.66;5030109;28;20053;-69
2022/01/10 08:33:19;;;;;;;21.33;12.18;;;;;;;2.37;83.77;96200.84;5029729;28;20524;-70
2022/01/10 08:35:46;;;;;;;27.15;12.43;;;;;;;2.47;83.73;96206.22;5029813;28;20060;-69
2022/01/10 08:38:14;;;;;;;26.15;11.90;;;;;;;2.48;83.63;96210.53;5029458;28;20057;-71
2022/01/10 08:40:40;;;;;;;29.08;12.68;;;;;;;2.51;83.38;96213.47;5029710;28;20073;-69
2022/01/10 08:43:10;;;;;;;29.17;12.55;;;;;;;2.53;83.70;96215.91;5029454;28;20045;-69
2022/01/10 08:45:37;;;;;;;27.17;12.35;;;;;;;2.51;83.17;96212.69;5029949;28;20053;-69
2022/01/10 08:48:04;;;;;;;25.63;12.25;;;;;;;2.58;83.36;96213.19;5029768;28;20050;-69
2022/01/10 08:50:30;;;;;;;28.05;13.05;;;;;;;2.60;83.34;96216.41;5029683;28;20057;-70
2022/01/10 08:52:57;;;;;;;24.05;12.02;;;;;;;2.67;82.19;96224.22;5029624;28;20554;-70
2022/01/10 08:55:25;;;;;;;21.17;12.13;;;;;;;2.73;82.22;96232.00;5029663;28;20046;-69
2022/01/10 08:57:51;;;;;;;33.53;13.25;;;;;;;2.75;82.03;96239.78;5029779;28;20049;-69
2022/01/10 09:00:18;;;;;;;25.20;12.23;;;;;;;2.78;82.06;96240.06;5028942;28;20076;-69
2022/01/10 09:02:44;;;;;;;22.92;11.77;;;;;;;2.75;82.28;96237.91;5029491;28;20053;-69
2022/01/10 09:05:11;;;;;;;25.98;12.45;;;;;;;2.80;82.62;96247.84;5029254;28;20052;-69
2022/01/10 09:07:37;;;;;;;24.65;11.60;;;;;;;2.84;82.25;96244.34;5029460;28;20049;-69
2022/01/10 09:10:05;;;;;;;25.85;12.63;;;;;;;2.80;81.95;96270.16;5029219;28;20608;-70
2022/01/10 09:12:33;;;;;;;32.35;12.50;;;;;;;2.82;82.07;96278.78;5029544;28;20049;-70
2022/01/10 09:15:00;;;;;;;22.50;11.90;;;;;;;2.80;82.18;96283.63;5029322;28;20050;-70
2022/01/10 09:17:26;;;;;;;27.73;13.57;;;;;;;2.91;82.55;96283.59;5029111;28;20045;-70
2022/01/10 09:19:52;;;;;;;22.20;12.73;;;;;;;2.97;82.38;96291.41;5029246;28;20056;-70
2022/01/10 09:22:19;;;;;;;24.50;12.77;;;;;;;3.05;82.02;96298.13;5028960;28;20046;-69
2022/01/10 09:24:46;;;;;;;27.90;12.73;;;;;;;3.01;81.90;96297.84;5029340;28;20467;-69
2022/01/10 09:27:13;;;;;;;25.35;12.95;;;;;;;3.02;81.54;96309.41;5029031;28;20126;-69
2022/01/10 09:29:41;;;;;;;27.48;13.00;;;;;;;3.00;81.61;96300.81;5029057;28;20068;-69
2022/01/10 09:32:07;;;;;;;26.83;13.50;;;;;;;2.97;81.38;96309.41;5028717;28;20045;-71
2022/01/10 09:34:34;;;;;;;23.38;12.48;;;;;;;2.99;81.45;96309.97;5028928;28;20057;-69
2022/01/10 09:37:01;;;;;;;22.92;12.15;;;;;;;3.07;81.37;96306.72;5028943;28;20054;-70
2022/01/10 09:39:27;;;;;;;26.98;12.38;;;;;;;3.09;80.58;96309.97;5028345;28;20053;-69
2022/01/10 09:41:56;;;;;;;26.67;12.52;;;;;;;3.07;80.82;96320.19;5028732;28;20049;-69
2022/01/10 09:44:23;;;;;;;25.15;12.65;;;;;;;3.04;81.01;96326.13;5028519;28;20519;-69
2022/01/10 09:46:51;;;;;;;27.02;13.07;;;;;;;3.04;80.93;96323.41;5028232;28;20056;-69
2022/01/10 09:49:19;;;;;;;24.42;12.02;;;;;;;3.11;80.88;96329.31;5027892;28;20045;-69
2022/01/10 09:51:45;;;;;;;22.75;11.45;;;;;;;3.09;81.18;96321.53;5028623;28;20048;-69
2022/01/10 09:54:13;;;;;;;24.35;12.25;;;;;;;3.17;80.24;96332.81;5028369;28;20496;-69
2022/01/10 09:56:40;;;;;;;25.88;12.40;;;;;;;3.13;79.46;96333.38;5028607;28;20452;-69
2022/01/10 09:59:08;;;;;;;22.38;11.38;;;;;;;3.14;79.64;96339.56;5028191;28;20064;-69
2022/01/10 10:01:35;;;;;;;24.17;12.63;;;;;;;3.15;79.90;96341.16;5028370;28;20052;-69
2022/01/10 10:04:03;;;;;;;21.42;12.07;;;;;;;3.25;79.87;96348.44;5028408;28;20049;-69
2022/01/10 10:06:32;;;;;;;26.08;12.52;;;;;;;3.25;80.06;96357.31;5028548;28;20049;-70
2022/01/10 10:09:00;;;;;;;23.35;12.40;;;;;;;3.32;80.60;96362.41;5028549;28;20054;-69
2022/01/10 10:11:40;;;;;;;23.83;11.80;;;;;;;3.32;80.73;96352.44;5027993;28;20053;-70
2022/01/10 10:14:08;;;;;;;26.30;12.38;;;;;;;3.32;80.94;96365.91;5028075;28;20052;-70
2022/01/10 10:16:38;;;;;;;27.48;14.20;;;;;;;3.40;80.68;96364.56;5028445;28;20128;-69
2022/01/10 10:19:07;;;;;;;23.48;11.48;;;;;;;3.40;80.60;96370.75;5027858;28;20080;-69
2022/01/10 10:21:34;;;;;;;23.63;11.70;;;;;;;3.34;80.26;96373.69;5028287;28;20052;-70
2022/01/10 10:24:04;;;;;;;31.00;11.73;;;;;;;3.37;80.31;96382.03;5028178;28;20061;-70
2022/01/10 10:26:31;;;;;;;22.23;11.65;;;;;;;3.37;80.10;96382.03;5028078;28;20125;-69
2022/01/10 10:28:57;;;;;;;24.35;11.18;;;;;;;3.36;79.99;96385.81;5028436;28;20057;-70
2022/01/10 10:31:26;;;;;;;25.50;11.95;;;;;;;3.37;80.38;96390.13;5027541;28;20053;-69
2022/01/10 10:33:53;;;;;;;24.10;11.50;;;;;;;3.30;80.17;96388.78;5028288;28;20041;-71
2022/01/10 10:36:21;;;;;;;26.77;11.57;;;;;;;3.26;79.82;96398.47;5027367;28;20049;-71
2022/01/10 10:38:48;;;;;;;22.77;12.10;;;;;;;3.22;79.82;96400.88;5027869;28;20053;-71
2022/01/10 10:41:14;;;;;;;25.25;12.98;;;;;;;3.14;79.88;96399.56;5027541;28;20057;-71
2022/01/10 10:43:43;;;;;;;23.58;12.15;;;;;;;3.13;80.72;96402.50;5028171;28;20046;-71
2022/01/10 10:46:16;;;;;;;27.65;12.40;;;;;;;3.09;80.29;96402.25;5027033;28;20148;-71
2022/01/10 10:48:44;;;;;;;28.08;12.63;;;;;;;3.10;81.02;96408.44;5028110;28;20049;-71
2022/01/10 10:51:11;;;;;;;25.48;12.10;;;;;;;3.07;80.98;96406.25;5027196;28;20576;-71
2022/01/10 10:53:40;;;;;;;25.50;12.52;;;;;;;3.04;81.43;96404.13;5027976;28;20056;-71
2022/01/10 10:56:08;;;;;;;32.30;12.93;;;;;;;3.03;81.83;96407.91;5027592;28;20057;-71
2022/01/10 10:58:35;;;;;;;29.85;13.80;;;;;;;3.05;81.50;96411.13;5027983;28;20045;-71
2022/01/10 11:01:04;;;;;;;28.08;13.65;;;;;;;3.10;81.52;96403.06;5029588;28;20045;-71
2022/01/10 11:03:31;;;;;;;26.70;14.27;;;;;;;3.09;81.39;96406.81;5031686;28;20500;-71
2022/01/10 11:05:59;;;;;;;27.08;13.73;;;;;;;3.15;81.60;96416.50;5031751;28;20079;-71
2022/01/10 11:08:27;;;;;;;29.50;13.50;;;;;;;3.16;81.64;96420.00;5031210;28;20045;-71
2022/01/10 11:10:55;;;;;;;31.50;14.38;;;;;;;3.23;81.92;96418.63;5031405;28;20140;-71
2022/01/10 11:13:24;;;;;;;28.73;13.43;;;;;;;3.22;81.88;96421.59;5031387;28;20061;-69
2022/01/10 11:15:52;;;;;;;27.33;12.85;;;;;;;3.32;81.16;96427.00;5031374;28;20052;-69
2022/01/10 11:18:21;;;;;;;28.35;12.57;;;;;;;3.38;81.19;96434.78;5031167;28;20520;-69
2022/01/10 11:20:49;;;;;;;26.02;12.40;;;;;;;3.41;81.06;96430.75;5031157;28;20128;-69
2022/01/10 11:23:16;;;;;;;25.45;12.73;;;;;;;3.48;81.09;96430.47;5031276;28;20057;-69
2022/01/10 11:25:43;;;;;;;22.05;12.70;;;;;;;3.59;81.41;96437.47;5031485;28;20622;-70
2022/01/10 11:28:12;;;;;;;24.08;12.52;;;;;;;3.69;81.46;96445.53;5031114;28;20049;-70
2022/01/10 11:30:41;;;;;;;25.88;11.82;;;;;;;3.75;80.23;96441.75;5031109;28;20060;-69
2022/01/10 11:33:09;;;;;;;22.83;11.88;;;;;;;3.78;79.21;96446.59;5030766;28;20072;-69
2022/01/10 11:35:38;;;;;;;22.48;12.23;;;;;;;3.76;79.58;96448.78;5031138;28;20492;-69
2022/01/10 11:38:25;;;;;;;23.85;12.23;;;;;;;3.75;78.89;96452.53;5030842;28;20143;-70